Time;durP1;ratioP1;P1;durP2;ratioP2;P2;SDS_P1;SDS_P2;PMS_P1;PMS_P2;Temp;Humidity;BMP_temperature;BMP_pressure;BME280_temperature;BME280_humidity;BME280_pressure;Samples;Min_cycle;Max_cycle;Signal;HPM_P1;HPM_P2
2022/03/20 00:00:53;;;;;;;11.87;6.43;;;4.80;99.90;;;;;;4824199;29;20045;-82
2022/03/20 00:03:21;;;;;;;10.80;6.70;;;4.70;99.90;;;;;;4797824;29;20045;-81
2022/03/20 00:05:48;;;;;;;11.13;6.57;;;4.70;99.90;;;;;;4811959;29;20046;-82
2022/03/20 00:08:15;;;;;;;11.40;6.60;;;4.70;99.90;;;;;;4808404;29;20057;-81
2022/03/20 00:10:44;;;;;;;12.50;7.03;;;4.70;99.90;;;;;;4813132;29;20053;-81
2022/03/20 00:13:10;;;;;;;11.10;6.27;;;4.70;99.90;;;;;;4808093;29;20043;-82
2022/03/20 00:15:40;;;;;;;11.33;6.97;;;4.70;99.90;;;;;;4810508;29;20049;-81
2022/03/20 00:18:06;;;;;;;11.47;6.70;;;4.70;99.90;;;;;;4812052;29;20042;-82
2022/03/20 00:20:45;;;;;;;12.23;6.53;;;4.70;99.90;;;;;;4811142;29;20050;-81
2022/03/20 00:23:12;;;;;;;11.50;6.43;;;4.70;99.90;;;;;;4826837;29;20057;-81
2022/03/20 00:25:39;;;;;;;10.70;6.30;;;4.60;99.90;;;;;;4826435;29;20493;-81
2022/03/20 00:28:06;;;;;;;12.23;7.13;;;4.60;99.90;;;;;;4811633;29;20466;-81
2022/03/20 00:30:33;;;;;;;10.07;6.47;;;4.60;99.90;;;;;;4809748;29;20056;-82
2022/03/20 00:32:58;;;;;;;12.03;6.80;;;4.60;99.90;;;;;;4811357;29;20048;-81
2022/03/20 00:35:24;;;;;;;11.13;7.00;;;4.60;99.90;;;;;;4826535;29;20116;-81
2022/03/20 00:37:50;;;;;;;14.03;7.13;;;4.50;99.90;;;;;;4826611;29;20045;-81
2022/03/20 00:40:16;;;;;;;11.33;6.47;;;4.40;99.90;;;;;;4817327;29;20046;-81
2022/03/20 00:42:41;;;;;;;13.57;7.30;;;4.40;99.90;;;;;;4834681;29;20046;-81
2022/03/20 00:45:08;;;;;;;13.27;7.13;;;4.30;99.90;;;;;;4826221;29;20034;-81
2022/03/20 00:47:33;;;;;;;13.03;6.73;;;4.30;99.90;;;;;;4834818;29;20038;-82
2022/03/20 00:49:59;;;;;;;15.77;7.73;;;4.30;99.90;;;;;;4826593;29;20528;-81
2022/03/20 00:52:25;;;;;;;15.13;7.03;;;4.30;99.90;;;;;;4811246;29;20639;-80
2022/03/20 00:54:51;;;;;;;13.07;7.70;;;4.30;99.90;;;;;;4826207;29;20089;-80
2022/03/20 00:57:16;;;;;;;12.23;7.80;;;4.30;99.90;;;;;;4808146;29;20046;-80
2022/03/20 00:59:42;;;;;;;13.50;7.53;;;4.20;99.90;;;;;;4802267;29;20054;-81
2022/03/20 01:02:09;;;;;;;13.27;7.80;;;4.20;99.90;;;;;;4795698;29;21534;-80
2022/03/20 01:04:35;;;;;;;12.60;7.47;;;4.30;99.90;;;;;;4825696;29;20075;-80
2022/03/20 01:07:03;;;;;;;14.40;7.27;;;4.20;99.90;;;;;;4810749;29;20116;-81
2022/03/20 01:09:29;;;;;;;17.70;8.40;;;4.20;99.90;;;;;;4795887;29;20073;-80
2022/03/20 01:11:56;;;;;;;11.97;6.90;;;4.10;99.90;;;;;;4809649;29;20070;-81
2022/03/20 01:14:23;;;;;;;19.13;7.57;;;4.00;99.90;;;;;;4823780;29;20490;-81
2022/03/20 01:16:49;;;;;;;13.33;7.90;;;4.00;99.90;;;;;;4777142;29;20560;-80
2022/03/20 01:19:15;;;;;;;13.80;7.77;;;4.00;99.90;;;;;;4798389;29;20113;-81
2022/03/20 01:21:42;;;;;;;11.40;7.20;;;3.90;99.90;;;;;;4802824;29;20046;-80
2022/03/20 01:24:08;;;;;;;11.23;7.00;;;4.00;99.90;;;;;;4810719;29;20052;-81
2022/03/20 01:26:35;;;;;;;16.03;7.90;;;3.90;99.90;;;;;;4826133;29;20367;-81
2022/03/20 01:29:02;;;;;;;13.10;7.13;;;3.80;99.90;;;;;;4810688;29;20379;-81
2022/03/20 01:31:28;;;;;;;12.93;7.47;;;3.80;99.90;;;;;;4827447;29;20081;-81
2022/03/20 01:33:55;;;;;;;12.73;7.83;;;3.90;99.90;;;;;;4810382;29;20391;-81
2022/03/20 01:36:21;;;;;;;15.30;8.57;;;3.90;99.90;;;;;;4810038;29;20048;-80
2022/03/20 01:38:47;;;;;;;15.37;7.87;;;3.90;99.90;;;;;;4821488;29;20047;-81
2022/03/20 01:41:13;;;;;;;13.73;8.07;;;3.90;99.90;;;;;;4791960;29;20075;-80
2022/03/20 01:43:49;;;;;;;12.73;8.00;;;3.80;99.90;;;;;;4791148;29;20058;-80
2022/03/20 01:46:15;;;;;;;15.57;8.43;;;3.90;99.90;;;;;;4802901;29;20077;-80
2022/03/20 01:48:40;;;;;;;13.90;7.83;;;3.90;99.90;;;;;;4811336;29;20086;-81
2022/03/20 01:51:06;;;;;;;10.60;7.60;;;3.90;99.90;;;;;;4825188;29;20490;-81
2022/03/20 01:53:33;;;;;;;18.33;8.77;;;3.90;99.90;;;;;;4801338;29;20041;-81
2022/03/20 01:55:59;;;;;;;15.27;8.13;;;3.90;99.90;;;;;;4809974;29;20083;-80
2022/03/20 01:58:25;;;;;;;13.83;8.13;;;3.90;99.90;;;;;;4792380;29;20070;-81
2022/03/20 02:00:50;;;;;;;13.50;8.10;;;3.80;99.90;;;;;;4824252;29;20061;-81
2022/03/20 02:03:16;;;;;;;14.70;8.53;;;3.80;99.90;;;;;;4809773;29;20077;-81
2022/03/20 02:05:43;;;;;;;14.23;8.90;;;3.80;99.90;;;;;;4779745;29;20111;-81
2022/03/20 02:08:11;;;;;;;14.03;8.83;;;3.80;99.90;;;;;;4824286;29;20102;-80
2022/03/20 02:10:37;;;;;;;15.70;8.93;;;3.90;99.90;;;;;;4806759;29;20134;-81
2022/03/20 02:13:04;;;;;;;15.50;8.83;;;3.80;99.90;;;;;;4806186;29;20128;-81
2022/03/20 02:15:32;;;;;;;14.20;8.03;;;3.80;99.90;;;;;;4809771;29;20046;-81
2022/03/20 02:17:58;;;;;;;13.53;8.27;;;3.70;99.90;;;;;;4809339;29;20053;-81
2022/03/20 02:20:24;;;;;;;17.27;8.30;;;3.70;99.90;;;;;;4809764;29;20528;-81
2022/03/20 02:22:49;;;;;;;14.13;8.33;;;3.70;99.90;;;;;;4823323;29;20524;-81
2022/03/20 02:25:17;;;;;;;16.40;9.93;;;3.70;99.90;;;;;;4806783;29;20050;-81
2022/03/20 02:27:44;;;;;;;15.63;9.80;;;3.60;99.90;;;;;;4807714;29;20042;-81
2022/03/20 02:30:13;;;;;;;17.53;9.77;;;3.60;99.90;;;;;;4809204;29;20042;-81
2022/03/20 02:32:48;;;;;;;17.97;9.20;;;3.60;99.90;;;;;;4821734;29;20045;-81
2022/03/20 02:35:15;;;;;;;16.43;9.37;;;3.60;99.90;;;;;;4809585;29;20050;-81
2022/03/20 02:37:46;;;;;;;14.23;8.87;;;3.60;99.90;;;;;;4824430;29;20046;-81
2022/03/20 02:40:13;;;;;;;16.63;9.90;;;3.60;99.90;;;;;;4807427;29;20088;-81
2022/03/20 02:42:41;;;;;;;18.53;9.23;;;3.60;99.90;;;;;;4809468;29;20528;-82
2022/03/20 02:45:11;;;;;;;15.10;9.67;;;3.50;99.90;;;;;;4802162;29;20034;-80
2022/03/20 02:47:39;;;;;;;15.90;10.17;;;3.50;99.90;;;;;;4824528;29;20053;-81
2022/03/20 02:50:06;;;;;;;20.80;10.07;;;3.50;99.90;;;;;;4814415;29;20054;-81
2022/03/20 02:52:48;;;;;;;15.70;9.87;;;3.50;99.90;;;;;;4819981;29;20066;-81
2022/03/20 02:55:19;;;;;;;17.80;9.90;;;3.40;99.90;;;;;;4824984;29;20384;-81
2022/03/20 02:57:47;;;;;;;19.33;10.85;;;3.40;99.90;;;;;;4827752;29;20116;-81
2022/03/20 03:00:14;;;;;;;16.30;9.83;;;3.40;99.90;;;;;;4825391;29;20042;-81
2022/03/20 03:02:43;;;;;;;17.90;10.53;;;3.30;99.90;;;;;;4827162;29;20057;-81
2022/03/20 03:05:11;;;;;;;17.57;9.93;;;3.30;99.90;;;;;;4825232;29;20049;-81
2022/03/20 03:10:55;;;;;;;18.27;10.37;;;3.20;99.90;;;;;;4812576;29;20455;-81
2022/03/20 03:13:09;;;;;;;18.67;9.83;;;3.10;99.90;;;;;;4817168;29;20834;-81
2022/03/20 03:15:34;;;;;;;20.70;10.00;;;3.10;99.90;;;;;;4827761;29;20568;-81
2022/03/20 03:18:00;;;;;;;18.70;10.43;;;3.10;99.90;;;;;;4814943;29;20287;-82
2022/03/20 03:20:27;;;;;;;20.63;10.43;;;3.10;99.90;;;;;;4812478;29;20061;-82
2022/03/20 03:22:52;;;;;;;17.30;9.80;;;3.10;99.90;;;;;;4824531;29;20378;-81
2022/03/20 03:25:18;;;;;;;17.53;10.77;;;3.00;99.90;;;;;;4797270;29;20362;-81
2022/03/20 03:27:44;;;;;;;18.93;10.30;;;3.10;99.90;;;;;;4812000;29;20049;-81
2022/03/20 03:30:12;;;;;;;18.07;10.43;;;3.00;99.90;;;;;;4823485;29;20046;-80
2022/03/20 03:32:42;;;;;;;16.93;10.93;;;2.90;99.90;;;;;;4793871;29;20137;-81
2022/03/20 03:37:53;;;;;;;19.07;10.53;;;2.80;99.90;;;;;;4821830;29;20061;-81
2022/03/20 03:40:19;;;;;;;22.57;11.03;;;2.90;99.90;;;;;;4818494;29;20355;-81
2022/03/20 03:42:46;;;;;;;20.63;11.17;;;2.90;99.90;;;;;;4798317;29;20046;-81
2022/03/20 03:45:12;;;;;;;20.47;11.33;;;2.80;99.90;;;;;;4817117;29;20050;-81
2022/03/20 03:47:40;;;;;;;19.57;11.43;;;2.80;99.90;;;;;;4805196;29;20311;-80
2022/03/20 03:50:07;;;;;;;18.30;11.27;;;2.80;99.90;;;;;;4824271;29;20316;-81
2022/03/20 03:52:33;;;;;;;17.47;10.80;;;2.80;99.90;;;;;;4811445;29;20748;-81
2022/03/20 03:54:58;;;;;;;19.90;12.20;;;2.80;99.90;;;;;;4812205;29;20310;-81
2022/03/20 03:57:24;;;;;;;18.60;11.37;;;2.80;99.90;;;;;;4797246;29;20042;-81
2022/03/20 03:59:50;;;;;;;20.60;12.07;;;2.80;99.90;;;;;;4827407;29;20156;-81
2022/03/20 04:02:16;;;;;;;20.53;12.10;;;2.80;99.90;;;;;;4800917;29;20077;-81
2022/03/20 04:04:42;;;;;;;21.37;12.70;;;2.80;99.90;;;;;;4824500;29;20399;-81
2022/03/20 04:07:09;;;;;;;23.17;12.40;;;2.80;99.90;;;;;;4830117;29;20287;-81
2022/03/20 04:09:35;;;;;;;22.17;12.53;;;2.80;99.90;;;;;;4811200;29;20294;-82
2022/03/20 04:12:03;;;;;;;19.87;12.70;;;2.80;99.90;;;;;;4812097;29;20290;-81
2022/03/20 04:14:29;;;;;;;23.90;12.80;;;2.80;99.90;;;;;;4810146;29;20325;-81
2022/03/20 04:16:55;;;;;;;24.50;12.77;;;2.70;99.90;;;;;;4826739;29;20298;-81
2022/03/20 04:19:21;;;;;;;23.47;14.40;;;2.70;99.90;;;;;;4804084;29;20791;-81
2022/03/20 04:21:50;;;;;;;22.70;13.57;;;2.70;99.90;;;;;;4827178;29;20830;-80
2022/03/20 04:24:16;;;;;;;23.00;14.03;;;2.70;99.90;;;;;;4799767;29;20288;-81
2022/03/20 04:26:43;;;;;;;24.53;13.70;;;2.70;99.90;;;;;;4809083;29;20297;-81
2022/03/20 04:29:09;;;;;;;21.23;13.13;;;2.70;99.90;;;;;;4803405;29;20049;-81
2022/03/20 04:31:35;;;;;;;27.37;14.17;;;2.60;99.90;;;;;;4796794;29;20291;-81
2022/03/20 04:34:00;;;;;;;23.73;14.63;;;2.60;99.90;;;;;;4796557;29;20054;-81
2022/03/20 04:36:30;;;;;;;24.87;13.50;;;2.60;99.90;;;;;;4796790;29;20478;-81
2022/03/20 04:38:59;;;;;;;23.17;15.23;;;2.60;99.90;;;;;;4841694;29;20045;-81
2022/03/20 04:41:25;;;;;;;22.17;14.27;;;2.60;99.90;;;;;;4826663;29;20779;-81
2022/03/20 04:43:51;;;;;;;23.57;13.93;;;2.60;99.90;;;;;;4802173;29;20287;-81
2022/03/20 04:46:18;;;;;;;21.83;14.57;;;2.60;99.90;;;;;;4791015;29;20048;-82
2022/03/20 04:59:44;;;;;;;24.83;14.57;;;2.50;99.90;;;;;;4795065;29;20327;-81
2022/03/20 05:02:10;;;;;;;28.30;15.13;;;2.50;99.90;;;;;;4807877;29;20365;-81
2022/03/20 05:04:37;;;;;;;24.43;15.93;;;2.50;99.90;;;;;;4825851;29;20286;-81
2022/03/20 05:07:04;;;;;;;25.03;14.83;;;2.50;99.90;;;;;;4826401;29;20287;-82
2022/03/20 05:14:58;;;;;;;29.27;16.60;;;2.50;99.90;;;;;;4808815;29;20049;-80
2022/03/20 05:17:25;;;;;;;25.77;16.20;;;2.40;99.90;;;;;;4810121;29;20287;-81
2022/03/20 05:19:50;;;;;;;28.90;16.33;;;2.50;99.90;;;;;;4810698;29;20635;-81
2022/03/20 05:22:16;;;;;;;28.43;15.90;;;2.40;99.90;;;;;;4823232;29;20393;-81
2022/03/20 05:24:43;;;;;;;24.50;16.27;;;2.40;99.90;;;;;;4815740;29;20039;-81
2022/03/20 05:27:08;;;;;;;30.63;16.37;;;2.40;99.90;;;;;;4811129;29;20069;-81
2022/03/20 05:29:35;;;;;;;26.17;15.07;;;2.40;99.90;;;;;;4809619;29;20345;-80
2022/03/20 05:32:02;;;;;;;27.87;16.07;;;2.40;99.90;;;;;;4819388;29;20094;-81
2022/03/20 05:34:29;;;;;;;30.30;15.63;;;2.40;99.90;;;;;;4810228;29;20307;-81
2022/03/20 05:36:56;;;;;;;28.57;16.40;;;2.40;99.90;;;;;;4808591;29;20784;-81
2022/03/20 05:39:22;;;;;;;27.33;16.30;;;2.30;99.90;;;;;;4784979;29;20295;-81
2022/03/20 05:41:48;;;;;;;25.20;15.93;;;2.40;99.90;;;;;;4796642;29;20286;-81
2022/03/20 05:44:17;;;;;;;27.13;16.67;;;2.30;99.90;;;;;;4821133;29;20299;-81
2022/03/20 05:46:44;;;;;;;26.57;16.93;;;2.30;99.90;;;;;;4825748;29;20291;-81
2022/03/20 05:49:10;;;;;;;31.93;17.17;;;2.30;99.90;;;;;;4797507;29;20283;-81
2022/03/20 05:51:37;;;;;;;28.20;16.43;;;2.30;99.90;;;;;;4811739;29;20672;-81
2022/03/20 05:54:06;;;;;;;27.57;15.70;;;2.40;99.90;;;;;;4822987;29;20186;-81
2022/03/20 05:59:16;;;;;;;29.13;16.17;;;2.40;99.90;;;;;;4808732;29;20331;-81
2022/03/20 06:01:42;;;;;;;26.47;17.03;;;2.40;99.90;;;;;;4803204;29;20291;-81
2022/03/20 06:04:08;;;;;;;30.30;17.10;;;2.40;99.90;;;;;;4826319;29;20341;-80
2022/03/20 06:06:35;;;;;;;27.10;16.70;;;2.40;99.90;;;;;;4824166;29;20347;-80
2022/03/20 06:09:02;;;;;;;29.77;18.23;;;2.40;99.90;;;;;;4807843;29;20054;-82
2022/03/20 06:11:28;;;;;;;27.87;17.57;;;2.50;99.90;;;;;;4824289;29;20698;-81
2022/03/20 06:13:54;;;;;;;31.63;18.00;;;2.50;99.90;;;;;;4794772;29;20349;-82
2022/03/20 06:16:22;;;;;;;27.83;17.13;;;2.50;99.90;;;;;;4803055;29;20121;-81
2022/03/20 06:18:49;;;;;;;30.30;17.27;;;2.50;99.90;;;;;;4809780;29;20038;-82
2022/03/20 06:21:15;;;;;;;24.67;16.90;;;2.50;99.90;;;;;;4806696;29;20300;-82
2022/03/20 06:23:41;;;;;;;25.93;17.03;;;2.50;99.90;;;;;;4809137;29;20362;-82
2022/03/20 06:26:08;;;;;;;26.57;16.27;;;2.50;99.90;;;;;;4796450;29;20286;-82
2022/03/20 06:28:35;;;;;;;26.47;17.00;;;2.60;99.90;;;;;;4823104;29;20050;-82
2022/03/20 06:31:00;;;;;;;31.80;17.33;;;2.60;99.90;;;;;;4826579;29;20374;-82
2022/03/20 06:33:26;;;;;;;27.80;16.37;;;2.60;99.90;;;;;;4824341;29;20393;-82
2022/03/20 06:35:53;;;;;;;31.10;18.43;;;2.70;99.90;;;;;;4793348;29;20057;-82
2022/03/20 06:38:19;;;;;;;32.33;17.13;;;2.70;99.90;;;;;;4806883;29;20325;-82
2022/03/20 06:40:45;;;;;;;33.33;16.97;;;2.70;99.90;;;;;;4802544;29;20791;-82
2022/03/20 06:43:11;;;;;;;32.73;17.40;;;2.70;99.90;;;;;;4821844;29;20295;-84
2022/03/20 06:45:37;;;;;;;29.27;17.97;;;2.80;99.90;;;;;;4809200;29;20053;-82
2022/03/20 06:48:04;;;;;;;25.57;17.23;;;2.80;99.90;;;;;;4823841;29;20554;-83
2022/03/20 06:50:30;;;;;;;29.47;16.53;;;2.90;99.90;;;;;;4813562;29;20056;-82
2022/03/20 06:53:01;;;;;;;31.03;17.93;;;2.90;99.90;;;;;;4823896;29;20315;-83
2022/03/20 06:55:27;;;;;;;28.27;17.60;;;2.90;99.90;;;;;;4802390;29;20038;-82
2022/03/20 06:57:52;;;;;;;30.23;18.10;;;2.90;99.90;;;;;;4818117;29;21085;-82
2022/03/20 07:00:18;;;;;;;31.33;17.77;;;3.00;99.90;;;;;;4806391;29;20374;-83
2022/03/20 07:02:44;;;;;;;25.47;17.17;;;3.00;99.90;;;;;;4802504;29;20477;-81
2022/03/20 07:05:10;;;;;;;32.37;16.50;;;3.00;99.90;;;;;;4810008;29;20037;-82
2022/03/20 07:07:36;;;;;;;34.37;18.27;;;3.10;99.90;;;;;;4824619;29;20520;-83
2022/03/20 07:10:02;;;;;;;28.70;16.93;;;3.10;99.90;;;;;;4806357;29;20050;-83
2022/03/20 07:12:28;;;;;;;26.70;17.80;;;3.20;99.90;;;;;;4822740;29;20137;-82
2022/03/20 07:14:55;;;;;;;30.77;17.53;;;3.40;99.90;;;;;;4809204;29;20153;-83
2022/03/20 07:17:21;;;;;;;29.57;17.50;;;3.30;99.90;;;;;;4808788;29;20559;-83
2022/03/20 07:19:47;;;;;;;30.17;17.77;;;3.30;99.90;;;;;;4795873;29;20045;-82
2022/03/20 07:22:15;;;;;;;31.53;18.10;;;3.40;99.90;;;;;;4803648;29;20342;-82
2022/03/20 07:24:42;;;;;;;29.07;18.10;;;3.50;99.90;;;;;;4821627;29;20697;-84
2022/03/20 07:29:57;;;;;;;30.97;17.73;;;3.60;99.90;;;;;;4819234;29;20537;-82
2022/03/20 07:32:22;;;;;;;29.23;17.63;;;3.50;99.90;;;;;;4809540;29;20042;-83
2022/03/20 07:34:48;;;;;;;29.30;17.23;;;3.70;99.90;;;;;;4795783;29;20106;-82
2022/03/20 07:37:16;;;;;;;30.83;17.50;;;3.80;99.90;;;;;;4821294;29;20042;-83
2022/03/20 07:39:47;;;;;;;29.07;17.97;;;3.70;99.90;;;;;;4813641;29;20049;-81
2022/03/20 07:42:14;;;;;;;27.50;17.55;;;3.90;99.90;;;;;;4829037;29;20286;-82
2022/03/20 07:44:41;;;;;;;28.43;16.97;;;3.90;99.90;;;;;;4813890;29;20046;-82
2022/03/20 07:47:08;;;;;;;26.30;16.90;;;4.00;99.90;;;;;;4828812;29;20065;-82
2022/03/20 07:49:38;;;;;;;27.33;18.67;;;4.00;99.90;;;;;;4810494;29;20046;-83
2022/03/20 07:52:07;;;;;;;30.87;17.87;;;4.10;99.90;;;;;;4792377;29;20066;-82
2022/03/20 07:54:36;;;;;;;28.70;17.30;;;4.20;99.90;;;;;;4809892;29;20082;-81
2022/03/20 07:57:03;;;;;;;30.97;17.37;;;4.20;99.90;;;;;;4800104;29;20046;-82
2022/03/20 07:59:29;;;;;;;31.70;17.77;;;4.40;99.90;;;;;;4810612;29;20446;-82
2022/03/20 08:01:54;;;;;;;31.93;18.33;;;4.40;99.90;;;;;;4807145;29;20047;-81
2022/03/20 08:04:20;;;;;;;30.60;18.73;;;4.50;99.90;;;;;;4807480;29;20452;-82
2022/03/20 08:06:46;;;;;;;31.73;18.00;;;4.60;99.90;;;;;;4792618;29;20138;-83
2022/03/20 08:09:12;;;;;;;26.80;17.30;;;4.70;99.90;;;;;;4807493;29;20133;-82
2022/03/20 08:11:37;;;;;;;29.40;17.67;;;4.70;99.90;;;;;;4777033;29;20054;-82
2022/03/20 08:14:07;;;;;;;29.57;17.60;;;4.80;99.90;;;;;;4808087;29;20039;-83
2022/03/20 08:16:36;;;;;;;28.97;17.87;;;4.90;99.90;;;;;;4797848;29;20199;-82
2022/03/20 08:19:02;;;;;;;31.30;17.97;;;5.00;99.90;;;;;;4809155;29;20050;-83
2022/03/20 08:21:28;;;;;;;31.03;17.90;;;5.00;99.90;;;;;;4794470;29;20061;-83
2022/03/20 08:23:54;;;;;;;29.67;18.37;;;5.10;99.90;;;;;;4794677;29;20046;-83
2022/03/20 08:26:20;;;;;;;28.97;17.73;;;5.10;99.90;;;;;;4794076;29;20075;-84
2022/03/20 08:28:46;;;;;;;28.40;17.67;;;5.20;99.90;;;;;;4794258;29;20047;-83
2022/03/20 08:31:13;;;;;;;30.17;18.60;;;5.30;99.90;;;;;;4794431;29;20407;-84
2022/03/20 08:33:42;;;;;;;30.93;17.90;;;5.40;99.90;;;;;;4794008;29;20050;-83
2022/03/20 08:36:08;;;;;;;24.97;16.90;;;5.50;99.90;;;;;;4806569;29;20043;-83
2022/03/20 08:38:34;;;;;;;30.83;18.33;;;5.50;99.90;;;;;;4809226;29;20057;-85
2022/03/20 08:41:00;;;;;;;32.27;20.17;;;5.60;99.90;;;;;;4809239;29;20046;-82
2022/03/20 08:43:26;;;;;;;28.90;19.07;;;5.60;99.90;;;;;;4808453;29;20089;-82
2022/03/20 08:45:52;;;;;;;33.27;18.63;;;5.80;99.90;;;;;;4794114;29;20081;-84
2022/03/20 08:48:18;;;;;;;31.43;18.70;;;5.90;99.90;;;;;;4793505;29;20557;-83
2022/03/20 08:50:48;;;;;;;32.73;18.40;;;5.90;99.90;;;;;;4807646;29;20086;-82
2022/03/20 08:53:21;;;;;;;30.90;18.53;;;6.00;99.90;;;;;;4811158;29;20076;-83
2022/03/20 08:55:47;;;;;;;28.20;17.70;;;6.10;99.90;;;;;;4808720;29;20050;-83
2022/03/20 08:58:14;;;;;;;31.27;19.07;;;6.10;99.90;;;;;;4806558;29;20056;-82
2022/03/20 09:00:41;;;;;;;31.17;18.63;;;6.10;99.90;;;;;;4826082;29;20085;-84
2022/03/20 09:03:07;;;;;;;32.23;18.60;;;6.20;99.90;;;;;;4825309;29;20129;-82
2022/03/20 09:05:33;;;;;;;32.17;19.17;;;6.30;99.90;;;;;;4824782;29;20054;-83
2022/03/20 09:07:59;;;;;;;29.93;18.60;;;6.40;99.90;;;;;;4811752;29;20049;-86
2022/03/20 09:10:25;;;;;;;34.87;19.37;;;6.50;99.50;;;;;;4812027;29;20069;-84
2022/03/20 09:12:57;;;;;;;31.37;18.40;;;6.70;99.30;;;;;;4811730;29;20077;-82
2022/03/20 09:15:24;;;;;;;33.45;19.70;;;6.80;98.20;;;;;;4798225;29;20046;-81
2022/03/20 09:20:38;;;;;;;29.03;18.97;;;6.90;95.20;;;;;;4792317;29;20086;-82
2022/03/20 09:23:06;;;;;;;32.40;19.37;;;7.10;94.20;;;;;;4807582;29;20080;-83
2022/03/20 09:25:32;;;;;;;31.30;18.97;;;7.20;93.80;;;;;;4823813;29;20052;-81
2022/03/20 09:27:59;;;;;;;32.27;19.77;;;7.30;94.00;;;;;;4809925;29;20050;-81
2022/03/20 09:30:25;;;;;;;30.47;18.77;;;7.40;90.00;;;;;;4810725;29;20042;-81
2022/03/20 09:32:50;;;;;;;30.40;19.27;;;7.40;90.50;;;;;;4795523;29;20058;-83
2022/03/20 09:35:17;;;;;;;31.23;20.20;;;7.50;87.50;;;;;;4807921;29;20038;-83
2022/03/20 09:37:43;;;;;;;33.83;21.53;;;7.60;86.40;;;;;;4792630;29;20785;-82
2022/03/20 09:40:10;;;;;;;31.90;20.23;;;7.60;87.30;;;;;;4807355;29;20121;-83
2022/03/20 09:42:36;;;;;;;31.27;20.17;;;7.70;85.10;;;;;;4800354;29;20050;-83
2022/03/20 09:45:03;;;;;;;31.10;19.73;;;7.80;83.70;;;;;;4823424;29;20545;-83
2022/03/20 09:47:29;;;;;;;31.40;20.60;;;7.90;83.00;;;;;;4794681;29;20136;-83
2022/03/20 09:49:58;;;;;;;33.80;19.83;;;7.90;81.60;;;;;;4806821;29;20149;-82
2022/03/20 09:52:23;;;;;;;38.70;20.83;;;8.00;78.70;;;;;;4825495;29;20582;-82
2022/03/20 09:54:50;;;;;;;34.43;20.47;;;8.10;78.70;;;;;;4780003;29;20058;-83
2022/03/20 09:57:16;;;;;;;30.67;20.63;;;8.20;78.10;;;;;;4832503;29;20045;-83
2022/03/20 09:59:42;;;;;;;37.23;20.47;;;8.30;77.00;;;;;;4809648;29;20049;-81
2022/03/20 10:02:10;;;;;;;32.63;19.97;;;8.30;77.10;;;;;;4809761;29;20042;-83
2022/03/20 10:05:18;;;;;;;35.43;19.43;;;8.30;74.90;;;;;;4810475;29;20551;-82
2022/03/20 10:07:43;;;;;;;31.33;21.03;;;8.40;72.30;;;;;;4766540;30;20087;-82
2022/03/20 10:10:13;;;;;;;32.30;20.23;;;8.60;75.00;;;;;;4803427;29;20089;-85
2022/03/20 10:12:45;;;;;;;32.97;20.20;;;8.60;72.90;;;;;;4809028;29;20061;-82
2022/03/20 10:15:30;;;;;;;31.20;20.30;;;8.70;73.00;;;;;;4806374;29;20054;-82
2022/03/20 10:18:20;;;;;;;31.50;20.40;;;8.70;70.70;;;;;;4813025;29;20077;-82
2022/03/20 10:20:47;;;;;;;33.37;20.70;;;8.80;71.00;;;;;;4821478;29;20074;-85
2022/03/20 10:23:41;;;;;;;38.50;21.80;;;8.90;71.30;;;;;;4799882;29;20665;-82
2022/03/20 10:26:11;;;;;;;32.50;20.57;;;8.90;69.10;;;;;;4814453;29;20086;-81
2022/03/20 10:28:38;;;;;;;33.90;21.10;;;8.90;70.60;;;;;;4805994;29;20065;-81
2022/03/20 10:31:06;;;;;;;36.10;21.97;;;8.90;70.20;;;;;;4796021;29;20862;-84
2022/03/20 10:33:35;;;;;;;32.57;20.63;;;8.90;68.00;;;;;;4823292;29;20225;-83
2022/03/20 10:36:20;;;;;;;33.23;21.53;;;9.00;69.10;;;;;;4824795;29;20106;-83
2022/03/20 10:38:48;;;;;;;34.27;21.27;;;9.10;68.90;;;;;;4792407;29;20077;-81
2022/03/20 10:41:24;;;;;;;38.40;22.43;;;9.20;67.30;;;;;;4809435;29;20045;-82
2022/03/20 10:43:51;;;;;;;33.07;20.93;;;9.30;67.00;;;;;;4833429;29;20141;-83
2022/03/20 10:46:28;;;;;;;32.90;20.97;;;9.30;67.70;;;;;;4793780;29;20053;-82
2022/03/20 10:48:56;;;;;;;35.37;21.63;;;9.50;67.70;;;;;;4810369;29;20108;-82
2022/03/20 10:51:37;;;;;;;37.77;21.83;;;9.50;67.20;;;;;;4807315;29;20056;-83
2022/03/20 10:54:21;;;;;;;35.05;21.83;;;9.60;65.50;;;;;;4809142;29;20061;-85
2022/03/20 10:56:56;;;;;;;37.30;22.17;;;9.70;64.50;;;;;;4809627;29;20402;-81
2022/03/20 10:59:23;;;;;;;35.47;21.50;;;9.70;66.00;;;;;;4815587;29;20046;-81
2022/03/20 11:01:49;;;;;;;36.97;22.93;;;9.80;66.50;;;;;;4809769;29;20034;-82
2022/03/20 11:04:16;;;;;;;36.07;22.87;;;9.90;65.70;;;;;;4824586;29;20142;-83
2022/03/20 11:06:49;;;;;;;36.07;21.57;;;9.90;64.50;;;;;;4794711;29;20050;-82
2022/03/20 11:09:16;;;;;;;34.50;21.77;;;9.90;64.40;;;;;;4824018;29;20053;-82
2022/03/20 11:11:53;;;;;;;31.93;21.37;;;10.00;64.00;;;;;;4839372;29;20072;-82
2022/03/20 11:14:25;;;;;;;32.27;21.80;;;10.00;63.30;;;;;;4839578;29;20051;-81
2022/03/20 11:17:01;;;;;;;34.73;21.83;;;10.00;63.30;;;;;;4812376;29;20506;-85
2022/03/20 11:19:31;;;;;;;29.97;21.43;;;10.20;61.80;;;;;;4802975;29;20112;-82
2022/03/20 11:22:10;;;;;;;35.33;22.77;;;10.30;63.10;;;;;;4826592;29;20046;-83
2022/03/20 11:24:37;;;;;;;37.13;22.50;;;10.30;61.50;;;;;;4825045;29;20069;-84
2022/03/20 11:27:04;;;;;;;34.53;21.40;;;10.40;62.70;;;;;;4799698;29;20068;-82
2022/03/20 11:29:50;;;;;;;37.53;23.30;;;10.40;62.70;;;;;;4820142;29;20046;-84
2022/03/20 11:32:17;;;;;;;36.53;23.70;;;10.50;61.00;;;;;;4812437;29;20065;-84
2022/03/20 11:34:46;;;;;;;33.17;21.33;;;10.50;61.90;;;;;;4806639;29;20050;-82
2022/03/20 11:37:15;;;;;;;32.47;21.97;;;10.60;62.10;;;;;;4795016;29;20518;-85
2022/03/20 11:40:08;;;;;;;36.77;22.67;;;10.70;60.60;;;;;;4812256;29;20397;-82
2022/03/20 11:42:34;;;;;;;33.78;21.52;;;10.80;59.90;;;;;;4812598;29;20049;-82
2022/03/20 11:44:59;;;;;;;33.60;22.20;;;10.90;61.90;;;;;;4827449;29;20454;-83
2022/03/20 11:47:30;;;;;;;35.33;21.93;;;11.00;61.80;;;;;;4826947;29;20081;-81
2022/03/20 11:50:23;;;;;;;34.67;21.63;;;11.00;60.70;;;;;;4827218;29;20521;-83
2022/03/20 11:52:48;;;;;;;33.70;21.47;;;11.10;59.00;;;;;;4807090;29;20087;-82
2022/03/20 11:55:34;;;;;;;33.93;21.97;;;11.10;60.60;;;;;;4809169;29;20104;-85
2022/03/20 11:58:16;;;;;;;35.17;22.33;;;11.20;58.00;;;;;;4826824;29;20045;-82
2022/03/20 12:00:44;;;;;;;34.03;21.97;;;11.20;59.20;;;;;;4812030;29;20042;-87
2022/03/20 12:03:26;;;;;;;33.60;22.70;;;11.20;59.10;;;;;;4812588;29;20045;-82
2022/03/20 12:06:30;;;;;;;36.08;22.25;;;11.20;58.00;;;;;;4809140;29;20440;-82
2022/03/20 12:09:03;;;;;;;33.07;22.60;;;11.40;59.80;;;;;;4842375;29;20049;-85
2022/03/20 12:11:41;;;;;;;35.60;23.00;;;11.50;59.30;;;;;;4811956;29;20046;-84
2022/03/20 12:14:34;;;;;;;34.70;22.50;;;11.40;58.90;;;;;;4811788;29;20053;-82
2022/03/20 12:17:01;;;;;;;35.20;22.93;;;11.40;57.60;;;;;;4794296;29;20395;-82
2022/03/20 12:19:42;;;;;;;38.73;23.00;;;11.40;59.20;;;;;;4810236;29;20042;-83
2022/03/20 12:22:14;;;;;;;36.90;22.40;;;11.30;57.50;;;;;;4808497;29;20121;-81
2022/03/20 12:24:52;;;;;;;34.47;22.07;;;11.40;59.10;;;;;;4826320;29;20053;-82
2022/03/20 12:27:24;;;;;;;39.77;23.40;;;11.50;58.80;;;;;;4810109;29;20046;-84
2022/03/20 12:30:01;;;;;;;34.35;22.50;;;11.60;58.60;;;;;;4811686;29;20057;-84
2022/03/20 12:32:48;;;;;;;37.03;22.07;;;11.80;58.70;;;;;;4797181;29;20049;-84
2022/03/20 12:35:26;;;;;;;34.57;23.10;;;11.90;57.80;;;;;;4810991;29;20098;-82
2022/03/20 12:37:55;;;;;;;33.90;22.33;;;11.90;56.60;;;;;;4811169;29;20048;-84
2022/03/20 12:40:25;;;;;;;35.67;23.03;;;11.80;57.00;;;;;;4811629;29;20955;-81
2022/03/20 12:42:55;;;;;;;33.03;22.17;;;11.70;56.70;;;;;;4824019;29;20095;-82
2022/03/20 12:45:21;;;;;;;33.93;22.87;;;11.80;57.70;;;;;;4811804;29;20060;-83
2022/03/20 12:47:56;;;;;;;32.73;22.37;;;11.90;58.20;;;;;;4793438;29;20046;-86
2022/03/20 12:50:25;;;;;;;35.47;23.00;;;12.00;57.50;;;;;;4808875;29;20047;-82
2022/03/20 12:52:59;;;;;;;31.27;21.53;;;12.00;57.80;;;;;;4825994;29;20058;-82
2022/03/20 12:55:30;;;;;;;34.93;24.13;;;12.00;58.10;;;;;;4811123;29;20158;-85
2022/03/20 12:57:56;;;;;;;36.07;22.50;;;11.90;57.60;;;;;;4826436;29;20056;-84
2022/03/20 13:00:25;;;;;;;34.17;22.43;;;11.70;58.10;;;;;;4841476;29;20057;-87
2022/03/20 13:03:08;;;;;;;33.83;22.73;;;11.60;57.90;;;;;;4841941;29;20054;-86
2022/03/20 13:05:57;;;;;;;34.53;22.70;;;11.50;57.20;;;;;;4825156;29;20114;-83
2022/03/20 13:08:34;;;;;;;34.10;22.37;;;11.50;57.30;;;;;;4826106;29;20046;-84
2022/03/20 13:14:03;;;;;;;34.37;22.37;;;11.90;56.80;;;;;;4823720;29;20065;-87
2022/03/20 13:16:29;;;;;;;33.63;22.93;;;12.00;57.40;;;;;;4797112;29;20312;-84
2022/03/20 13:18:56;;;;;;;33.83;22.77;;;12.10;57.60;;;;;;4816695;29;20124;-82